sensor_id;sensor_type;location;lat;lon;timestamp;P1;durP1;ratioP1;P2;durP2;ratioP2
72573;SDS011;60603;52.548;13.420;2023-08-07T00:01:18;5.72;;;2.15;;
72573;SDS011;60603;52.548;13.420;2023-08-07T00:03:46;8.73;;;2.10;;
72573;SDS011;60603;52.548;13.420;2023-08-07T00:06:13;4.47;;;1.88;;
72573;SDS011;60603;52.548;13.420;2023-08-07T00:08:40;4.60;;;2.15;;
72573;SDS011;60603;52.548;13.420;2023-08-07T00:11:10;5.15;;;2.28;;
72573;SDS011;60603;52.548;13.420;2023-08-07T00:13:37;4.43;;;1.92;;
72573;SDS011;60603;52.548;13.420;2023-08-07T00:16:04;5.82;;;2.35;;
72573;SDS011;60603;52.548;13.420;2023-08-07T00:18:31;4.05;;;1.85;;
72573;SDS011;60603;52.548;13.420;2023-08-07T00:20:58;6.28;;;2.55;;
72573;SDS011;60603;52.548;13.420;2023-08-07T00:23:25;5.80;;;2.40;;
72573;SDS011;60603;52.548;13.420;2023-08-07T00:25:51;9.13;;;2.40;;
72573;SDS011;60603;52.548;13.420;2023-08-07T00:28:18;5.65;;;2.40;;
72573;SDS011;60603;52.548;13.420;2023-08-07T00:30:45;5.10;;;2.40;;
72573;SDS011;60603;52.548;13.420;2023-08-07T00:33:12;5.25;;;2.35;;
72573;SDS011;60603;52.548;13.420;2023-08-07T00:35:39;8.23;;;2.65;;
72573;SDS011;60603;52.548;13.420;2023-08-07T00:38:06;6.60;;;2.97;;
72573;SDS011;60603;52.548;13.420;2023-08-07T00:40:36;4.63;;;2.33;;
72573;SDS011;60603;52.548;13.420;2023-08-07T00:43:04;4.78;;;2.40;;
72573;SDS011;60603;52.548;13.420;2023-08-07T00:45:40;6.03;;;2.85;;
72573;SDS011;60603;52.548;13.420;2023-08-07T00:48:08;7.15;;;2.15;;
72573;SDS011;60603;52.548;13.420;2023-08-07T00:50:35;5.35;;;2.63;;
72573;SDS011;60603;52.548;13.420;2023-08-07T00:53:13;6.03;;;2.38;;
72573;SDS011;60603;52.548;13.420;2023-08-07T00:55:41;4.25;;;2.17;;
72573;SDS011;60603;52.548;13.420;2023-08-07T00:58:10;6.55;;;2.78;;
72573;SDS011;60603;52.548;13.420;2023-08-07T01:00:37;7.07;;;2.58;;
72573;SDS011;60603;52.548;13.420;2023-08-07T01:03:05;5.03;;;2.42;;
72573;SDS011;60603;52.548;13.420;2023-08-07T01:05:33;5.20;;;2.47;;
72573;SDS011;60603;52.548;13.420;2023-08-07T01:08:00;4.38;;;2.60;;
72573;SDS011;60603;52.548;13.420;2023-08-07T01:13:05;5.47;;;2.63;;
72573;SDS011;60603;52.548;13.420;2023-08-07T01:15:55;5.28;;;2.13;;
72573;SDS011;60603;52.548;13.420;2023-08-07T01:18:27;5.63;;;2.80;;
72573;SDS011;60603;52.548;13.420;2023-08-07T01:20:53;6.65;;;2.30;;
72573;SDS011;60603;52.548;13.420;2023-08-07T01:23:20;4.60;;;2.30;;
72573;SDS011;60603;52.548;13.420;2023-08-07T01:25:47;6.50;;;2.60;;
72573;SDS011;60603;52.548;13.420;2023-08-07T01:30:42;6.03;;;2.70;;
72573;SDS011;60603;52.548;13.420;2023-08-07T01:35:53;7.90;;;2.67;;
72573;SDS011;60603;52.548;13.420;2023-08-07T01:38:23;7.47;;;2.30;;
72573;SDS011;60603;52.548;13.420;2023-08-07T01:40:51;5.07;;;2.60;;
72573;SDS011;60603;52.548;13.420;2023-08-07T01:43:19;6.63;;;2.60;;
72573;SDS011;60603;52.548;13.420;2023-08-07T01:45:46;5.30;;;2.47;;
72573;SDS011;60603;52.548;13.420;2023-08-07T01:48:13;4.70;;;2.22;;
72573;SDS011;60603;52.548;13.420;2023-08-07T01:50:40;6.70;;;2.40;;
72573;SDS011;60603;52.548;13.420;2023-08-07T01:53:07;5.07;;;2.67;;
72573;SDS011;60603;52.548;13.420;2023-08-07T01:55:33;7.60;;;2.92;;
72573;SDS011;60603;52.548;13.420;2023-08-07T01:58:00;14.70;;;2.92;;
72573;SDS011;60603;52.548;13.420;2023-08-07T02:00:27;6.20;;;2.50;;
72573;SDS011;60603;52.548;13.420;2023-08-07T02:02:54;5.35;;;2.35;;
72573;SDS011;60603;52.548;13.420;2023-08-07T02:05:21;6.20;;;2.60;;
72573;SDS011;60603;52.548;13.420;2023-08-07T02:07:48;4.97;;;2.45;;
72573;SDS011;60603;52.548;13.420;2023-08-07T02:10:15;4.88;;;2.50;;
72573;SDS011;60603;52.548;13.420;2023-08-07T02:12:42;9.05;;;3.00;;
72573;SDS011;60603;52.548;13.420;2023-08-07T02:15:08;4.93;;;2.67;;
72573;SDS011;60603;52.548;13.420;2023-08-07T02:17:36;5.40;;;2.95;;
72573;SDS011;60603;52.548;13.420;2023-08-07T02:20:05;7.22;;;3.00;;
72573;SDS011;60603;52.548;13.420;2023-08-07T02:22:32;6.32;;;3.05;;
72573;SDS011;60603;52.548;13.420;2023-08-07T02:24:59;8.05;;;3.08;;
72573;SDS011;60603;52.548;13.420;2023-08-07T02:27:26;8.80;;;3.20;;
72573;SDS011;60603;52.548;13.420;2023-08-07T02:29:53;5.50;;;2.50;;
72573;SDS011;60603;52.548;13.420;2023-08-07T02:32:20;6.40;;;2.80;;
72573;SDS011;60603;52.548;13.420;2023-08-07T02:34:47;9.77;;;3.20;;
72573;SDS011;60603;52.548;13.420;2023-08-07T02:37:14;6.55;;;3.08;;
72573;SDS011;60603;52.548;13.420;2023-08-07T02:39:42;6.65;;;2.92;;
72573;SDS011;60603;52.548;13.420;2023-08-07T02:42:09;5.45;;;2.95;;
72573;SDS011;60603;52.548;13.420;2023-08-07T02:44:35;7.50;;;3.30;;
72573;SDS011;60603;52.548;13.420;2023-08-07T02:47:02;9.18;;;3.05;;
72573;SDS011;60603;52.548;13.420;2023-08-07T02:49:29;6.68;;;3.38;;
72573;SDS011;60603;52.548;13.420;2023-08-07T02:51:57;11.57;;;3.65;;
72573;SDS011;60603;52.548;13.420;2023-08-07T02:54:26;9.60;;;3.50;;
72573;SDS011;60603;52.548;13.420;2023-08-07T02:56:53;6.47;;;3.13;;
72573;SDS011;60603;52.548;13.420;2023-08-07T02:59:20;9.55;;;3.65;;
72573;SDS011;60603;52.548;13.420;2023-08-07T03:01:47;7.38;;;3.45;;
72573;SDS011;60603;52.548;13.420;2023-08-07T03:04:14;6.35;;;3.33;;
72573;SDS011;60603;52.548;13.420;2023-08-07T03:06:41;9.85;;;3.50;;
72573;SDS011;60603;52.548;13.420;2023-08-07T03:09:08;5.70;;;2.90;;
72573;SDS011;60603;52.548;13.420;2023-08-07T03:11:35;7.93;;;3.70;;
72573;SDS011;60603;52.548;13.420;2023-08-07T03:14:01;6.90;;;3.55;;
72573;SDS011;60603;52.548;13.420;2023-08-07T03:16:29;6.53;;;3.70;;
72573;SDS011;60603;52.548;13.420;2023-08-07T03:18:56;10.57;;;4.22;;
72573;SDS011;60603;52.548;13.420;2023-08-07T03:21:23;10.27;;;4.40;;
72573;SDS011;60603;52.548;13.420;2023-08-07T03:23:50;9.93;;;4.00;;
72573;SDS011;60603;52.548;13.420;2023-08-07T03:26:17;10.13;;;3.92;;
72573;SDS011;60603;52.548;13.420;2023-08-07T03:28:45;16.13;;;4.72;;
72573;SDS011;60603;52.548;13.420;2023-08-07T03:31:16;9.45;;;3.88;;
72573;SDS011;60603;52.548;13.420;2023-08-07T03:33:43;6.85;;;3.20;;
72573;SDS011;60603;52.548;13.420;2023-08-07T03:36:09;7.38;;;3.42;;
72573;SDS011;60603;52.548;13.420;2023-08-07T03:38:36;7.57;;;3.33;;
72573;SDS011;60603;52.548;13.420;2023-08-07T03:41:03;8.63;;;4.20;;
72573;SDS011;60603;52.548;13.420;2023-08-07T03:43:30;7.40;;;4.22;;
72573;SDS011;60603;52.548;13.420;2023-08-07T03:45:57;10.45;;;4.28;;
72573;SDS011;60603;52.548;13.420;2023-08-07T03:48:29;8.70;;;3.92;;
72573;SDS011;60603;52.548;13.420;2023-08-07T03:51:03;9.68;;;4.05;;
72573;SDS011;60603;52.548;13.420;2023-08-07T03:53:31;9.70;;;4.15;;
72573;SDS011;60603;52.548;13.420;2023-08-07T03:55:58;7.97;;;3.50;;
72573;SDS011;60603;52.548;13.420;2023-08-07T03:58:24;9.70;;;4.30;;
72573;SDS011;60603;52.548;13.420;2023-08-07T04:00:51;7.13;;;3.67;;
72573;SDS011;60603;52.548;13.420;2023-08-07T04:03:19;9.05;;;4.00;;
72573;SDS011;60603;52.548;13.420;2023-08-07T04:05:47;10.63;;;3.83;;
72573;SDS011;60603;52.548;13.420;2023-08-07T04:08:14;10.85;;;5.55;;
72573;SDS011;60603;52.548;13.420;2023-08-07T04:10:41;6.75;;;3.47;;
72573;SDS011;60603;52.548;13.420;2023-08-07T04:13:08;8.13;;;4.07;;
72573;SDS011;60603;52.548;13.420;2023-08-07T04:15:35;7.32;;;3.50;;
72573;SDS011;60603;52.548;13.420;2023-08-07T04:18:02;10.45;;;4.25;;
72573;SDS011;60603;52.548;13.420;2023-08-07T04:20:29;6.88;;;3.83;;
72573;SDS011;60603;52.548;13.420;2023-08-07T04:22:55;8.35;;;3.97;;
72573;SDS011;60603;52.548;13.420;2023-08-07T04:25:22;8.43;;;3.78;;
72573;SDS011;60603;52.548;13.420;2023-08-07T04:27:49;8.00;;;3.60;;
72573;SDS011;60603;52.548;13.420;2023-08-07T04:30:16;7.22;;;3.88;;
72573;SDS011;60603;52.548;13.420;2023-08-07T04:32:43;6.70;;;3.55;;
72573;SDS011;60603;52.548;13.420;2023-08-07T04:35:10;9.25;;;3.80;;
72573;SDS011;60603;52.548;13.420;2023-08-07T04:37:37;13.18;;;4.57;;
72573;SDS011;60603;52.548;13.420;2023-08-07T04:40:03;8.30;;;3.22;;
72573;SDS011;60603;52.548;13.420;2023-08-07T04:42:31;9.50;;;3.33;;
72573;SDS011;60603;52.548;13.420;2023-08-07T04:44:59;7.03;;;3.78;;
72573;SDS011;60603;52.548;13.420;2023-08-07T04:47:27;8.27;;;4.18;;
72573;SDS011;60603;52.548;13.420;2023-08-07T04:49:55;7.20;;;3.40;;
72573;SDS011;60603;52.548;13.420;2023-08-07T04:52:21;6.50;;;3.33;;
72573;SDS011;60603;52.548;13.420;2023-08-07T04:54:52;8.65;;;3.35;;
72573;SDS011;60603;52.548;13.420;2023-08-07T04:57:19;6.43;;;3.38;;
72573;SDS011;60603;52.548;13.420;2023-08-07T04:59:46;8.45;;;3.15;;
72573;SDS011;60603;52.548;13.420;2023-08-07T05:02:13;7.15;;;2.78;;
72573;SDS011;60603;52.548;13.420;2023-08-07T05:04:40;9.13;;;3.42;;
72573;SDS011;60603;52.548;13.420;2023-08-07T05:07:06;7.10;;;2.97;;
72573;SDS011;60603;52.548;13.420;2023-08-07T05:09:33;5.65;;;2.38;;
72573;SDS011;60603;52.548;13.420;2023-08-07T05:12:00;6.88;;;2.60;;
72573;SDS011;60603;52.548;13.420;2023-08-07T05:14:29;5.32;;;2.50;;
72573;SDS011;60603;52.548;13.420;2023-08-07T05:16:56;8.40;;;2.90;;
72573;SDS011;60603;52.548;13.420;2023-08-07T05:19:23;6.70;;;3.30;;
72573;SDS011;60603;52.548;13.420;2023-08-07T05:21:49;6.38;;;2.60;;
72573;SDS011;60603;52.548;13.420;2023-08-07T05:24:17;6.47;;;2.50;;
72573;SDS011;60603;52.548;13.420;2023-08-07T05:26:44;6.93;;;2.45;;
72573;SDS011;60603;52.548;13.420;2023-08-07T05:29:11;8.85;;;3.20;;
72573;SDS011;60603;52.548;13.420;2023-08-07T05:31:38;6.32;;;2.50;;
72573;SDS011;60603;52.548;13.420;2023-08-07T05:34:05;6.20;;;2.45;;
72573;SDS011;60603;52.548;13.420;2023-08-07T05:36:33;5.80;;;2.53;;
72573;SDS011;60603;52.548;13.420;2023-08-07T05:39:00;7.32;;;2.92;;
72573;SDS011;60603;52.548;13.420;2023-08-07T05:41:27;5.43;;;2.78;;
72573;SDS011;60603;52.548;13.420;2023-08-07T05:43:54;6.07;;;2.53;;
72573;SDS011;60603;52.548;13.420;2023-08-07T05:46:21;6.00;;;3.00;;
72573;SDS011;60603;52.548;13.420;2023-08-07T05:48:48;7.75;;;2.63;;
72573;SDS011;60603;52.548;13.420;2023-08-07T05:51:14;6.10;;;2.70;;
72573;SDS011;60603;52.548;13.420;2023-08-07T05:53:41;6.53;;;2.60;;
72573;SDS011;60603;52.548;13.420;2023-08-07T05:56:08;4.60;;;2.47;;
72573;SDS011;60603;52.548;13.420;2023-08-07T05:58:35;8.82;;;2.80;;
72573;SDS011;60603;52.548;13.420;2023-08-07T06:01:02;4.63;;;1.98;;
72573;SDS011;60603;52.548;13.420;2023-08-07T06:03:29;5.70;;;2.55;;
72573;SDS011;60603;52.548;13.420;2023-08-07T06:05:56;6.70;;;2.20;;
72573;SDS011;60603;52.548;13.420;2023-08-07T06:08:23;7.38;;;2.17;;
72573;SDS011;60603;52.548;13.420;2023-08-07T06:10:50;5.43;;;2.03;;
72573;SDS011;60603;52.548;13.420;2023-08-07T06:13:17;8.88;;;2.40;;
72573;SDS011;60603;52.548;13.420;2023-08-07T06:16:01;6.50;;;2.28;;
72573;SDS011;60603;52.548;13.420;2023-08-07T06:18:28;4.43;;;2.00;;
72573;SDS011;60603;52.548;13.420;2023-08-07T06:20:56;5.57;;;2.15;;
72573;SDS011;60603;52.548;13.420;2023-08-07T06:23:23;7.63;;;2.42;;
72573;SDS011;60603;52.548;13.420;2023-08-07T06:25:50;6.00;;;2.38;;
72573;SDS011;60603;52.548;13.420;2023-08-07T06:28:23;6.90;;;2.40;;
72573;SDS011;60603;52.548;13.420;2023-08-07T06:30:49;4.15;;;1.80;;
72573;SDS011;60603;52.548;13.420;2023-08-07T06:33:16;6.63;;;2.20;;
72573;SDS011;60603;52.548;13.420;2023-08-07T06:35:43;4.05;;;2.20;;
72573;SDS011;60603;52.548;13.420;2023-08-07T06:38:10;5.30;;;1.90;;
72573;SDS011;60603;52.548;13.420;2023-08-07T06:40:37;4.93;;;2.10;;
72573;SDS011;60603;52.548;13.420;2023-08-07T06:43:04;4.95;;;1.80;;
72573;SDS011;60603;52.548;13.420;2023-08-07T06:45:31;3.75;;;1.70;;
72573;SDS011;60603;52.548;13.420;2023-08-07T06:47:58;5.28;;;1.73;;
72573;SDS011;60603;52.548;13.420;2023-08-07T06:50:25;5.80;;;1.90;;
72573;SDS011;60603;52.548;13.420;2023-08-07T06:52:52;5.70;;;1.63;;
72573;SDS011;60603;52.548;13.420;2023-08-07T06:55:20;5.05;;;1.80;;
72573;SDS011;60603;52.548;13.420;2023-08-07T06:57:47;5.40;;;1.77;;
72573;SDS011;60603;52.548;13.420;2023-08-07T07:00:15;9.57;;;1.83;;
72573;SDS011;60603;52.548;13.420;2023-08-07T07:02:42;6.47;;;1.92;;
72573;SDS011;60603;52.548;13.420;2023-08-07T07:05:09;8.82;;;2.30;;
72573;SDS011;60603;52.548;13.420;2023-08-07T07:07:37;4.97;;;1.80;;
72573;SDS011;60603;52.548;13.420;2023-08-07T07:10:04;4.88;;;1.70;;
72573;SDS011;60603;52.548;13.420;2023-08-07T07:12:32;7.57;;;1.77;;
72573;SDS011;60603;52.548;13.420;2023-08-07T07:14:59;6.30;;;1.70;;
72573;SDS011;60603;52.548;13.420;2023-08-07T07:17:26;3.15;;;1.60;;
72573;SDS011;60603;52.548;13.420;2023-08-07T07:19:53;5.72;;;1.90;;
72573;SDS011;60603;52.548;13.420;2023-08-07T07:22:20;5.93;;;1.77;;
72573;SDS011;60603;52.548;13.420;2023-08-07T07:24:47;5.25;;;1.80;;
72573;SDS011;60603;52.548;13.420;2023-08-07T07:27:14;6.18;;;1.83;;
72573;SDS011;60603;52.548;13.420;2023-08-07T07:29:40;6.20;;;2.00;;
72573;SDS011;60603;52.548;13.420;2023-08-07T07:32:07;3.75;;;1.65;;
72573;SDS011;60603;52.548;13.420;2023-08-07T07:34:34;3.10;;;1.50;;
72573;SDS011;60603;52.548;13.420;2023-08-07T07:37:01;3.28;;;1.60;;
72573;SDS011;60603;52.548;13.420;2023-08-07T07:39:28;3.45;;;1.60;;
72573;SDS011;60603;52.548;13.420;2023-08-07T07:41:55;4.97;;;1.98;;
72573;SDS011;60603;52.548;13.420;2023-08-07T07:44:22;5.75;;;1.60;;
72573;SDS011;60603;52.548;13.420;2023-08-07T07:46:49;4.68;;;1.50;;
72573;SDS011;60603;52.548;13.420;2023-08-07T07:49:17;3.75;;;1.35;;
72573;SDS011;60603;52.548;13.420;2023-08-07T07:51:44;5.88;;;1.60;;
72573;SDS011;60603;52.548;13.420;2023-08-07T07:54:11;3.70;;;1.70;;
72573;SDS011;60603;52.548;13.420;2023-08-07T07:56:44;3.47;;;1.55;;
72573;SDS011;60603;52.548;13.420;2023-08-07T07:59:11;3.13;;;1.33;;
72573;SDS011;60603;52.548;13.420;2023-08-07T08:01:39;4.55;;;1.30;;
72573;SDS011;60603;52.548;13.420;2023-08-07T08:04:06;5.43;;;1.92;;
72573;SDS011;60603;52.548;13.420;2023-08-07T08:06:33;4.78;;;1.40;;
72573;SDS011;60603;52.548;13.420;2023-08-07T08:09:00;4.68;;;1.45;;
72573;SDS011;60603;52.548;13.420;2023-08-07T08:11:31;4.25;;;1.65;;
72573;SDS011;60603;52.548;13.420;2023-08-07T08:13:57;4.45;;;1.52;;
72573;SDS011;60603;52.548;13.420;2023-08-07T08:16:24;5.82;;;1.42;;
72573;SDS011;60603;52.548;13.420;2023-08-07T08:18:51;3.58;;;1.60;;
72573;SDS011;60603;52.548;13.420;2023-08-07T08:21:18;4.43;;;1.42;;
72573;SDS011;60603;52.548;13.420;2023-08-07T08:23:45;6.88;;;2.00;;
72573;SDS011;60603;52.548;13.420;2023-08-07T08:26:12;5.75;;;1.80;;
72573;SDS011;60603;52.548;13.420;2023-08-07T08:28:39;3.45;;;1.55;;
72573;SDS011;60603;52.548;13.420;2023-08-07T08:31:06;7.63;;;2.55;;
72573;SDS011;60603;52.548;13.420;2023-08-07T08:33:33;5.32;;;1.60;;
72573;SDS011;60603;52.548;13.420;2023-08-07T08:36:00;3.95;;;1.70;;
72573;SDS011;60603;52.548;13.420;2023-08-07T08:38:26;3.90;;;1.60;;
72573;SDS011;60603;52.548;13.420;2023-08-07T08:40:59;5.55;;;1.77;;
72573;SDS011;60603;52.548;13.420;2023-08-07T08:43:29;5.82;;;1.77;;
72573;SDS011;60603;52.548;13.420;2023-08-07T08:46:03;6.35;;;1.63;;
72573;SDS011;60603;52.548;13.420;2023-08-07T08:48:33;4.47;;;1.73;;
72573;SDS011;60603;52.548;13.420;2023-08-07T08:51:02;3.80;;;1.65;;
72573;SDS011;60603;52.548;13.420;2023-08-07T08:53:31;4.18;;;1.70;;
72573;SDS011;60603;52.548;13.420;2023-08-07T08:55:59;5.82;;;1.67;;
72573;SDS011;60603;52.548;13.420;2023-08-07T08:58:27;4.88;;;1.80;;
72573;SDS011;60603;52.548;13.420;2023-08-07T09:00:54;3.88;;;1.70;;
72573;SDS011;60603;52.548;13.420;2023-08-07T09:03:21;4.60;;;1.83;;
72573;SDS011;60603;52.548;13.420;2023-08-07T09:05:48;5.30;;;1.58;;
72573;SDS011;60603;52.548;13.420;2023-08-07T09:08:16;4.10;;;1.63;;
72573;SDS011;60603;52.548;13.420;2023-08-07T09:10:43;4.93;;;1.60;;
72573;SDS011;60603;52.548;13.420;2023-08-07T09:13:10;5.75;;;1.95;;
72573;SDS011;60603;52.548;13.420;2023-08-07T09:15:41;5.40;;;1.67;;
72573;SDS011;60603;52.548;13.420;2023-08-07T09:18:14;4.03;;;1.70;;
72573;SDS011;60603;52.548;13.420;2023-08-07T09:20:41;4.60;;;1.25;;
72573;SDS011;60603;52.548;13.420;2023-08-07T09:23:08;4.10;;;1.48;;
72573;SDS011;60603;52.548;13.420;2023-08-07T09:25:35;4.03;;;1.40;;
72573;SDS011;60603;52.548;13.420;2023-08-07T09:28:03;6.07;;;2.38;;
72573;SDS011;60603;52.548;13.420;2023-08-07T09:30:31;3.78;;;1.35;;
72573;SDS011;60603;52.548;13.420;2023-08-07T09:32:59;4.95;;;1.42;;
72573;SDS011;60603;52.548;13.420;2023-08-07T09:35:27;7.55;;;1.80;;
72573;SDS011;60603;52.548;13.420;2023-08-07T09:37:56;4.43;;;1.63;;
72573;SDS011;60603;52.548;13.420;2023-08-07T09:40:23;4.95;;;1.85;;
72573;SDS011;60603;52.548;13.420;2023-08-07T09:42:50;4.97;;;1.60;;
72573;SDS011;60603;52.548;13.420;2023-08-07T09:45:26;5.35;;;1.67;;
72573;SDS011;60603;52.548;13.420;2023-08-07T09:47:57;6.38;;;1.80;;
72573;SDS011;60603;52.548;13.420;2023-08-07T09:50:24;6.10;;;1.40;;
72573;SDS011;60603;52.548;13.420;2023-08-07T09:52:51;3.15;;;1.30;;
72573;SDS011;60603;52.548;13.420;2023-08-07T09:55:18;3.10;;;1.40;;
72573;SDS011;60603;52.548;13.420;2023-08-07T09:57:45;4.38;;;1.63;;
72573;SDS011;60603;52.548;13.420;2023-08-07T10:00:12;5.03;;;1.73;;
72573;SDS011;60603;52.548;13.420;2023-08-07T10:02:41;4.97;;;1.83;;
72573;SDS011;60603;52.548;13.420;2023-08-07T10:05:10;3.83;;;1.30;;
72573;SDS011;60603;52.548;13.420;2023-08-07T10:07:40;4.80;;;1.52;;
72573;SDS011;60603;52.548;13.420;2023-08-07T10:10:07;3.83;;;1.55;;
72573;SDS011;60603;52.548;13.420;2023-08-07T10:12:35;6.82;;;1.73;;
72573;SDS011;60603;52.548;13.420;2023-08-07T10:15:02;5.70;;;1.48;;
72573;SDS011;60603;52.548;13.420;2023-08-07T10:17:30;4.65;;;1.50;;
72573;SDS011;60603;52.548;13.420;2023-08-07T10:19:58;6.95;;;1.83;;
72573;SDS011;60603;52.548;13.420;2023-08-07T10:22:26;4.93;;;1.45;;
72573;SDS011;60603;52.548;13.420;2023-08-07T10:24:56;4.25;;;1.33;;
72573;SDS011;60603;52.548;13.420;2023-08-07T10:27:24;4.03;;;1.50;;
72573;SDS011;60603;52.548;13.420;2023-08-07T10:29:52;5.30;;;1.52;;
72573;SDS011;60603;52.548;13.420;2023-08-07T10:32:20;4.82;;;1.60;;
72573;SDS011;60603;52.548;13.420;2023-08-07T10:34:51;4.32;;;1.45;;
72573;SDS011;60603;52.548;13.420;2023-08-07T10:37:38;3.78;;;1.30;;
72573;SDS011;60603;52.548;13.420;2023-08-07T10:40:09;5.18;;;1.75;;
72573;SDS011;60603;52.548;13.420;2023-08-07T10:45:21;4.10;;;1.17;;
72573;SDS011;60603;52.548;13.420;2023-08-07T10:48:11;5.38;;;1.48;;
72573;SDS011;60603;52.548;13.420;2023-08-07T10:53:28;4.00;;;1.45;;
72573;SDS011;60603;52.548;13.420;2023-08-07T10:55:56;3.33;;;1.20;;
72573;SDS011;60603;52.548;13.420;2023-08-07T10:58:25;4.88;;;1.30;;
72573;SDS011;60603;52.548;13.420;2023-08-07T11:01:15;3.95;;;1.23;;
72573;SDS011;60603;52.548;13.420;2023-08-07T11:03:49;4.40;;;1.40;;
72573;SDS011;60603;52.548;13.420;2023-08-07T11:06:28;3.72;;;1.60;;
72573;SDS011;60603;52.548;13.420;2023-08-07T11:09:00;3.60;;;1.33;;
72573;SDS011;60603;52.548;13.420;2023-08-07T11:11:35;4.55;;;1.60;;
72573;SDS011;60603;52.548;13.420;2023-08-07T11:14:10;3.55;;;1.30;;
72573;SDS011;60603;52.548;13.420;2023-08-07T11:16:38;4.40;;;1.35;;
72573;SDS011;60603;52.548;13.420;2023-08-07T11:19:05;3.55;;;1.20;;
72573;SDS011;60603;52.548;13.420;2023-08-07T11:21:32;4.05;;;1.23;;
72573;SDS011;60603;52.548;13.420;2023-08-07T11:24:00;6.07;;;1.70;;
72573;SDS011;60603;52.548;13.420;2023-08-07T11:26:28;3.67;;;1.30;;
72573;SDS011;60603;52.548;13.420;2023-08-07T11:28:55;5.22;;;1.67;;
72573;SDS011;60603;52.548;13.420;2023-08-07T11:31:22;4.38;;;1.50;;
72573;SDS011;60603;52.548;13.420;2023-08-07T11:33:54;4.45;;;1.70;;
72573;SDS011;60603;52.548;13.420;2023-08-07T11:36:22;5.95;;;1.70;;
72573;SDS011;60603;52.548;13.420;2023-08-07T11:38:49;5.50;;;1.83;;
72573;SDS011;60603;52.548;13.420;2023-08-07T11:41:16;4.45;;;1.60;;
72573;SDS011;60603;52.548;13.420;2023-08-07T11:43:44;5.28;;;1.52;;
72573;SDS011;60603;52.548;13.420;2023-08-07T11:46:12;3.63;;;1.70;;
72573;SDS011;60603;52.548;13.420;2023-08-07T11:48:41;7.63;;;1.65;;
72573;SDS011;60603;52.548;13.420;2023-08-07T11:51:09;6.55;;;1.40;;
72573;SDS011;60603;52.548;13.420;2023-08-07T11:53:36;6.55;;;1.85;;
72573;SDS011;60603;52.548;13.420;2023-08-07T11:56:05;5.00;;;1.52;;
72573;SDS011;60603;52.548;13.420;2023-08-07T11:58:34;3.53;;;1.35;;
72573;SDS011;60603;52.548;13.420;2023-08-07T12:01:18;5.55;;;1.60;;
72573;SDS011;60603;52.548;13.420;2023-08-07T12:03:52;5.28;;;1.58;;
72573;SDS011;60603;52.548;13.420;2023-08-07T12:06:22;9.18;;;1.95;;
72573;SDS011;60603;52.548;13.420;2023-08-07T12:08:50;5.20;;;1.70;;
72573;SDS011;60603;52.548;13.420;2023-08-07T12:11:20;5.28;;;1.83;;
72573;SDS011;60603;52.548;13.420;2023-08-07T12:13:50;6.15;;;1.95;;
72573;SDS011;60603;52.548;13.420;2023-08-07T12:16:17;5.75;;;1.85;;
72573;SDS011;60603;52.548;13.420;2023-08-07T12:18:51;3.53;;;1.30;;
72573;SDS011;60603;52.548;13.420;2023-08-07T12:21:20;5.72;;;1.40;;
72573;SDS011;60603;52.548;13.420;2023-08-07T12:23:50;3.50;;;1.20;;
72573;SDS011;60603;52.548;13.420;2023-08-07T12:26:18;3.05;;;1.58;;
72573;SDS011;60603;52.548;13.420;2023-08-07T12:28:45;3.58;;;1.58;;
72573;SDS011;60603;52.548;13.420;2023-08-07T12:31:12;5.40;;;1.65;;
72573;SDS011;60603;52.548;13.420;2023-08-07T12:33:39;3.67;;;1.30;;
72573;SDS011;60603;52.548;13.420;2023-08-07T12:36:06;4.00;;;1.67;;
72573;SDS011;60603;52.548;13.420;2023-08-07T12:38:46;6.05;;;2.03;;
72573;SDS011;60603;52.548;13.420;2023-08-07T12:41:13;4.53;;;1.55;;
72573;SDS011;60603;52.548;13.420;2023-08-07T12:43:43;4.25;;;1.33;;
72573;SDS011;60603;52.548;13.420;2023-08-07T12:46:10;4.20;;;1.48;;
72573;SDS011;60603;52.548;13.420;2023-08-07T12:51:07;6.57;;;1.75;;
72573;SDS011;60603;52.548;13.420;2023-08-07T12:53:34;8.32;;;1.75;;
72573;SDS011;60603;52.548;13.420;2023-08-07T12:56:01;4.93;;;1.60;;
72573;SDS011;60603;52.548;13.420;2023-08-07T12:58:29;6.32;;;1.70;;
72573;SDS011;60603;52.548;13.420;2023-08-07T13:00:56;7.10;;;2.13;;
72573;SDS011;60603;52.548;13.420;2023-08-07T13:03:23;5.43;;;1.63;;
72573;SDS011;60603;52.548;13.420;2023-08-07T13:05:50;6.30;;;1.45;;
72573;SDS011;60603;52.548;13.420;2023-08-07T13:08:17;5.47;;;1.70;;
72573;SDS011;60603;52.548;13.420;2023-08-07T13:10:44;6.43;;;1.73;;
72573;SDS011;60603;52.548;13.420;2023-08-07T13:13:15;7.25;;;2.42;;
72573;SDS011;60603;52.548;13.420;2023-08-07T13:15:42;7.22;;;2.03;;
72573;SDS011;60603;52.548;13.420;2023-08-07T13:18:08;5.97;;;2.00;;
72573;SDS011;60603;52.548;13.420;2023-08-07T13:20:35;6.10;;;1.95;;
72573;SDS011;60603;52.548;13.420;2023-08-07T13:23:02;8.32;;;1.80;;
72573;SDS011;60603;52.548;13.420;2023-08-07T13:25:32;4.95;;;1.48;;
72573;SDS011;60603;52.548;13.420;2023-08-07T13:27:59;5.05;;;1.30;;
72573;SDS011;60603;52.548;13.420;2023-08-07T13:30:26;5.30;;;1.55;;
72573;SDS011;60603;52.548;13.420;2023-08-07T13:33:02;4.88;;;1.63;;
72573;SDS011;60603;52.548;13.420;2023-08-07T13:35:29;4.45;;;1.33;;
72573;SDS011;60603;52.548;13.420;2023-08-07T13:37:56;7.32;;;1.77;;
72573;SDS011;60603;52.548;13.420;2023-08-07T13:40:23;7.15;;;2.47;;
72573;SDS011;60603;52.548;13.420;2023-08-07T13:42:49;6.85;;;1.85;;
72573;SDS011;60603;52.548;13.420;2023-08-07T13:45:16;10.23;;;1.95;;
72573;SDS011;60603;52.548;13.420;2023-08-07T13:47:43;5.45;;;1.75;;
72573;SDS011;60603;52.548;13.420;2023-08-07T13:50:10;9.30;;;1.77;;
72573;SDS011;60603;52.548;13.420;2023-08-07T13:52:39;7.68;;;1.73;;
72573;SDS011;60603;52.548;13.420;2023-08-07T13:55:06;4.90;;;1.73;;
72573;SDS011;60603;52.548;13.420;2023-08-07T13:57:35;4.32;;;1.63;;
72573;SDS011;60603;52.548;13.420;2023-08-07T14:00:02;8.65;;;2.65;;
72573;SDS011;60603;52.548;13.420;2023-08-07T14:02:30;10.57;;;1.80;;
72573;SDS011;60603;52.548;13.420;2023-08-07T14:04:58;8.55;;;1.92;;
72573;SDS011;60603;52.548;13.420;2023-08-07T14:07:25;5.70;;;2.35;;
72573;SDS011;60603;52.548;13.420;2023-08-07T14:09:52;5.82;;;1.70;;
72573;SDS011;60603;52.548;13.420;2023-08-07T14:12:19;6.57;;;1.95;;
72573;SDS011;60603;52.548;13.420;2023-08-07T14:14:46;8.63;;;1.90;;
72573;SDS011;60603;52.548;13.420;2023-08-07T14:17:12;6.93;;;1.50;;
72573;SDS011;60603;52.548;13.420;2023-08-07T14:19:39;10.00;;;2.72;;
72573;SDS011;60603;52.548;13.420;2023-08-07T14:22:06;8.15;;;2.00;;
72573;SDS011;60603;52.548;13.420;2023-08-07T14:24:33;9.13;;;2.80;;
72573;SDS011;60603;52.548;13.420;2023-08-07T14:27:00;6.82;;;2.35;;
72573;SDS011;60603;52.548;13.420;2023-08-07T14:29:27;7.90;;;2.00;;
72573;SDS011;60603;52.548;13.420;2023-08-07T14:31:54;7.93;;;1.83;;
72573;SDS011;60603;52.548;13.420;2023-08-07T14:34:21;5.50;;;1.90;;
72573;SDS011;60603;52.548;13.420;2023-08-07T14:36:48;4.68;;;1.40;;
72573;SDS011;60603;52.548;13.420;2023-08-07T14:39:15;5.45;;;1.70;;
72573;SDS011;60603;52.548;13.420;2023-08-07T14:41:42;5.07;;;1.73;;
72573;SDS011;60603;52.548;13.420;2023-08-07T14:44:09;6.72;;;2.22;;
72573;SDS011;60603;52.548;13.420;2023-08-07T14:46:36;4.22;;;1.65;;
72573;SDS011;60603;52.548;13.420;2023-08-07T14:49:05;7.03;;;2.22;;
72573;SDS011;60603;52.548;13.420;2023-08-07T14:51:31;7.50;;;1.77;;
72573;SDS011;60603;52.548;13.420;2023-08-07T14:53:58;6.65;;;1.70;;